Time;durP1;ratioP1;P1;durP2;ratioP2;P2;SDS_P1;SDS_P2;PMS_P1;PMS_P2;Temp;Humidity;BMP_temperature;BMP_pressure;BME280_temperature;BME280_humidity;BME280_pressure;Samples;Min_cycle;Max_cycle;Signal;HPM_P1;HPM_P2
2022/04/04 00:11:22;490323.00;1.63;845.16;0.00;0.00;0.62;;;;;7.20;1.00;;;;;;2274841;61;1308;-89
2022/04/04 00:21:27;157547.00;0.53;272.81;0.00;0.00;0.62;;;;;8.50;1.00;;;;;;1973051;41;3427;-88
2022/04/04 00:28:52;213791.00;0.71;369.66;0.00;0.00;0.62;;;;;7.80;1.00;;;;;;2266529;61;1449;-88
2022/04/04 00:31:19;808176.00;2.69;1395.39;0.00;0.00;0.62;;;;;7.90;1.00;;;;;;2264430;61;1666;-88
2022/04/04 00:36:16;293490.00;0.98;506.73;0.00;0.00;0.62;;;;;7.40;1.00;;;;;;2274836;61;1300;-88
2022/04/04 00:41:15;316581.00;1.06;546.42;0.00;0.00;0.62;;;;;8.20;1.00;;;;;;2274140;61;1337;-88
2022/04/04 00:43:42;65091.00;0.22;113.28;0.00;0.00;0.62;;;;;7.50;1.00;;;;;;2272592;61;2016;-86
2022/04/04 00:46:11;269621.00;0.90;465.69;0.00;0.00;0.62;;;;;7.50;1.00;;;;;;2272542;61;893;-87
2022/04/04 00:48:38;331206.00;1.10;571.56;0.00;0.00;0.62;;;;;7.20;1.00;;;;;;2272621;60;1570;-89
2022/04/04 00:51:05;179585.00;0.60;310.77;0.00;0.00;0.62;;;;;6.30;1.00;;;;;;2272581;60;1026;-88
2022/04/04 00:53:33;216525.00;0.72;374.36;0.00;0.00;0.62;;;;;6.30;1.00;;;;;;2272780;60;971;-88
2022/04/04 00:56:00;419849.00;1.40;723.93;0.00;0.00;0.62;;;;;6.30;1.00;;;;;;2272681;60;1616;-89
2022/04/04 00:58:30;151693.00;0.51;262.73;0.00;0.00;0.62;;;;;6.40;1.00;;;;;;2277767;55;3809;-87
2022/04/04 01:00:59;116810.00;0.39;202.58;0.00;0.00;0.62;;;;;6.70;1.00;;;;;;2276798;61;1090;-89
2022/04/04 01:03:28;117945.00;0.39;204.54;0.00;0.00;0.62;;;;;6.60;1.00;;;;;;2276722;61;1912;-87
2022/04/04 01:05:58;106540.00;0.36;184.86;0.00;0.00;0.62;;;;;5.90;1.00;;;;;;2276762;61;1150;-87
2022/04/04 01:08:25;287545.00;0.96;496.51;0.00;0.00;0.62;;;;;6.20;1.00;;;;;;2276557;61;1344;-89
2022/04/04 01:10:53;114034.00;0.38;197.79;0.00;0.00;0.62;;;;;5.80;1.00;;;;;;2276702;61;1025;-88
2022/04/04 01:13:20;168797.00;0.56;292.19;0.00;0.00;0.62;;;;;5.70;1.00;;;;;;2276727;61;1049;-88
2022/04/04 01:15:47;255275.00;0.85;441.02;10991.00;0.04;19.67;;;;;5.50;1.00;;;;;;2276668;61;1646;-88
2022/04/04 01:18:14;536800.00;1.79;925.21;22413.00;0.07;39.45;;;;;5.60;1.00;;;;;;2276696;61;1368;-90
2022/04/04 01:20:43;1366519.00;4.56;2394.37;77916.00;0.26;135.44;;;;;5.20;1.00;;;;;;2276662;61;976;-88
2022/04/04 01:23:14;710998.00;2.37;1226.32;47894.00;0.16;83.54;;;;;5.10;1.00;;;;;;2276722;61;1997;-88
2022/04/04 01:25:43;567488.00;1.89;978.11;49218.00;0.16;85.83;;;;;5.10;1.00;;;;;;2276672;61;1664;-87
2022/04/04 01:28:10;1167573.00;3.89;2031.70;192473.00;0.64;332.97;;;;;4.90;1.00;;;;;;2276616;61;1364;-87
2022/04/04 01:30:38;969056.00;3.23;1677.74;24719.00;0.08;43.44;;;;;4.60;1.00;;;;;;2276666;61;1050;-88
2022/04/04 01:33:05;1174942.00;3.92;2044.98;129026.00;0.43;223.65;;;;;5.10;1.00;;;;;;2276672;61;1141;-86
2022/04/04 01:35:32;1292107.00;4.31;2257.67;78123.00;0.26;135.79;;;;;5.30;1.00;;;;;;2276704;61;912;-88
2022/04/04 01:38:00;1200206.00;4.00;2090.59;84657.00;0.28;147.08;;;;;5.40;1.00;;;;;;2276621;61;1257;-87
2022/04/04 01:40:27;1454083.00;4.85;2557.01;4434.00;0.01;8.30;;;;;5.10;1.00;;;;;;2276677;61;1081;-89
2022/04/04 01:42:56;935138.00;3.12;1617.92;89736.00;0.30;155.85;;;;;5.10;1.00;;;;;;2276663;61;1986;-90
2022/04/04 01:48:06;906433.00;3.02;1567.42;11772.00;0.04;21.02;;;;;5.10;1.00;;;;;;2276445;61;1464;-88
2022/04/04 01:50:34;1338524.00;4.46;2342.78;17418.00;0.06;30.80;;;;;5.40;1.00;;;;;;2276662;61;1586;-89
2022/04/04 01:55:42;1316894.00;4.39;2303.06;78123.00;0.26;135.79;;;;;4.90;1.00;;;;;;2276461;61;1382;-88
2022/04/04 01:58:10;1422412.00;4.74;2497.96;129861.00;0.43;225.09;;;;;5.50;1.00;;;;;;2276407;61;2366;-88
2022/04/04 02:00:38;1605786.00;5.35;2843.80;165725.00;0.55;286.90;;;;;6.20;1.00;;;;;;2276507;61;1042;-89
2022/04/04 02:03:05;1252554.00;4.18;2185.53;122351.00;0.41;212.14;;;;;6.40;1.00;;;;;;2276400;61;2164;-89
2022/04/04 02:05:33;1126774.00;3.76;1958.37;174118.00;0.58;301.36;;;;;6.80;1.00;;;;;;2276549;61;1329;-88
2022/04/04 02:08:00;321477.00;1.07;554.84;93552.00;0.31;162.44;;;;;6.80;1.00;;;;;;2276370;61;1532;-88
2022/04/04 02:10:27;395947.00;1.32;682.84;107700.00;0.36;186.86;;;;;6.90;1.00;;;;;;2276542;61;1994;-88
2022/04/04 02:12:54;471811.00;1.57;813.31;95685.00;0.32;166.12;;;;;6.80;1.00;;;;;;2276477;61;1118;-90
2022/04/04 02:15:23;489235.00;1.63;843.29;98155.00;0.33;170.39;;;;;7.10;1.00;;;;;;2276557;61;1279;-89
2022/04/04 02:17:50;368232.00;1.23;635.20;70313.00;0.23;122.30;;;;;7.80;1.00;;;;;;2276500;61;1343;-88
2022/04/04 02:20:18;202857.00;0.68;350.84;96951.00;0.32;168.31;;;;;8.20;1.00;;;;;;2276467;61;1804;-87
2022/04/04 02:22:45;215411.00;0.72;372.45;89866.00;0.30;156.08;;;;;8.80;1.00;;;;;;2276500;61;1907;-87
2022/04/04 02:25:13;384833.00;1.28;663.73;92354.00;0.31;160.37;;;;;9.10;1.00;;;;;;2276488;61;1549;-86
2022/04/04 02:27:40;76958.00;0.26;133.78;0.00;0.00;0.62;;;;;9.10;1.00;;;;;;2276456;61;1262;-87
2022/04/04 02:30:08;76194.00;0.25;132.46;0.00;0.00;0.62;;;;;8.80;1.00;;;;;;2276373;61;1465;-86
2022/04/04 02:32:37;27048.00;0.09;47.47;0.00;0.00;0.62;;;;;8.80;1.00;;;;;;2276549;61;881;-87
2022/04/04 02:35:04;110675.00;0.37;191.99;0.00;0.00;0.62;;;;;9.10;1.00;;;;;;2276473;61;1636;-86
2022/04/04 02:37:31;162247.00;0.54;280.91;0.00;0.00;0.62;;;;;8.60;1.00;;;;;;2276448;61;1356;-87
2022/04/04 02:39:58;205068.00;0.68;354.65;44427.00;0.15;77.55;;;;;8.90;1.00;;;;;;2276383;61;1095;-88
2022/04/04 02:42:26;43222.00;0.14;75.46;0.00;0.00;0.62;;;;;9.00;1.00;;;;;;2276499;61;915;-88
2022/04/04 02:44:54;184240.00;0.61;318.79;0.00;0.00;0.62;;;;;9.30;1.00;;;;;;2276405;61;1993;-87
2022/04/04 02:47:20;42022.00;0.14;73.39;0.00;0.00;0.62;;;;;9.20;1.00;;;;;;2276294;61;1580;-88
2022/04/04 02:49:49;214160.00;0.71;370.29;0.00;0.00;0.62;;;;;9.40;1.00;;;;;;2276390;61;1491;-87
2022/04/04 02:52:16;188597.00;0.63;326.29;0.00;0.00;0.62;;;;;9.30;1.00;;;;;;2276370;61;1541;-87
2022/04/04 02:54:44;123074.00;0.41;213.38;0.00;0.00;0.62;;;;;9.20;1.00;;;;;;2276322;61;982;-88
2022/04/04 02:57:10;474201.00;1.58;817.42;112850.00;0.38;195.75;;;;;9.50;1.00;;;;;;2276370;61;1366;-87
2022/04/04 02:59:37;66905.00;0.22;116.41;0.00;0.00;0.62;;;;;8.60;1.00;;;;;;2276277;61;1783;-87
2022/04/04 03:02:04;28050.00;0.09;49.21;0.00;0.00;0.62;;;;;9.20;1.00;;;;;;2276457;61;1129;-86
2022/04/04 03:04:31;59176.00;0.20;103.05;0.00;0.00;0.62;;;;;9.20;1.00;;;;;;2276316;61;1910;-87
2022/04/04 03:07:01;8487.00;0.03;15.33;0.00;0.00;0.62;;;;;8.40;1.00;;;;;;2276290;61;2234;-88
2022/04/04 03:09:28;74355.00;0.25;129.29;0.00;0.00;0.62;;;;;7.60;1.00;;;;;;2276438;61;1084;-88
2022/04/04 03:11:55;14546.00;0.05;25.82;0.00;0.00;0.62;;;;;7.30;1.00;;;;;;2276426;61;1030;-88
2022/04/04 03:14:23;279189.00;0.93;482.14;0.00;0.00;0.62;;;;;6.70;1.00;;;;;;2276403;61;1086;-86
2022/04/04 03:16:50;120791.00;0.40;209.45;0.00;0.00;0.62;;;;;6.60;1.00;;;;;;2276265;61;1387;-88
2022/04/04 03:19:17;132970.00;0.44;230.45;0.00;0.00;0.62;;;;;6.80;1.00;;;;;;2276401;61;1148;-87
2022/04/04 03:21:45;115485.00;0.38;200.29;0.00;0.00;0.62;;;;;6.90;1.00;;;;;;2276268;61;1048;-88
2022/04/04 03:24:14;48196.00;0.16;84.07;0.00;0.00;0.62;;;;;6.60;1.00;;;;;;2276320;61;1992;-86
2022/04/04 03:26:41;46500.00;0.16;81.13;0.00;0.00;0.62;;;;;6.20;1.00;;;;;;2276284;61;1302;-86
2022/04/04 03:29:08;57587.00;0.19;100.31;0.00;0.00;0.62;;;;;5.30;1.00;;;;;;2276374;61;906;-88
2022/04/04 03:31:35;144693.00;0.48;250.66;0.00;0.00;0.62;;;;;5.40;1.00;;;;;;2276272;61;1459;-89
2022/04/04 03:34:03;132513.00;0.44;229.66;0.00;0.00;0.62;;;;;5.70;1.00;;;;;;2276274;61;895;-88
2022/04/04 03:36:30;104445.00;0.35;181.24;0.00;0.00;0.62;;;;;6.10;1.00;;;;;;2276182;61;1336;-88
2022/04/04 03:38:57;81416.00;0.27;141.48;0.00;0.00;0.62;;;;;6.10;1.00;;;;;;2276299;61;1027;-88
2022/04/04 03:41:26;77632.00;0.26;134.95;0.00;0.00;0.62;;;;;6.40;1.00;;;;;;2276194;61;1168;-89
2022/04/04 03:43:53;109420.00;0.36;189.83;0.00;0.00;0.62;;;;;6.30;1.00;;;;;;2276229;61;1990;-88
2022/04/04 03:46:19;169171.00;0.56;292.84;9156.00;0.03;16.49;;;;;6.30;1.00;;;;;;2276278;61;1011;-87
2022/04/04 03:48:46;96712.00;0.32;167.90;0.00;0.00;0.62;;;;;7.00;1.00;;;;;;2276267;61;1384;-87
2022/04/04 03:51:13;47734.00;0.16;83.27;0.00;0.00;0.62;;;;;6.90;1.00;;;;;;2276257;61;1039;-88
2022/04/04 03:53:40;184983.00;0.62;320.07;0.00;0.00;0.62;;;;;6.60;1.00;;;;;;2276254;61;1027;-88
2022/04/04 03:56:07;38316.00;0.13;66.97;0.00;0.00;0.62;;;;;6.20;1.00;;;;;;2276151;61;1020;-87
2022/04/04 03:58:36;132139.00;0.44;229.02;1476.00;0.00;3.18;;;;;6.30;1.00;;;;;;2276055;61;1769;-88
2022/04/04 04:01:03;93870.00;0.31;162.99;0.00;0.00;0.62;;;;;5.90;1.00;;;;;;2276329;61;923;-88
2022/04/04 04:03:31;246876.00;0.82;426.58;0.00;0.00;0.62;;;;;5.90;1.00;;;;;;2276212;61;2000;-89
2022/04/04 04:06:11;143589.00;0.48;248.76;0.00;0.00;0.62;;;;;6.20;1.00;;;;;;2276203;61;1750;-88
2022/04/04 04:08:39;119327.00;0.40;206.92;0.00;0.00;0.62;;;;;7.10;1.00;;;;;;2276164;61;1479;-88
2022/04/04 04:11:06;133416.00;0.44;231.22;0.00;0.00;0.62;;;;;7.10;1.00;;;;;;2276193;61;1015;-89
2022/04/04 04:13:33;109862.00;0.37;190.59;0.00;0.00;0.62;;;;;7.50;1.00;;;;;;2276304;61;954;-87
2022/04/04 04:16:03;112151.00;0.37;194.54;0.00;0.00;0.62;;;;;7.40;1.00;;;;;;2276209;61;1113;-88
2022/04/04 04:18:30;236580.00;0.79;408.87;13795.00;0.05;24.52;;;;;7.70;1.00;;;;;;2276124;61;2062;-88
2022/04/04 04:20:57;33700.00;0.11;58.99;0.00;0.00;0.62;;;;;8.10;1.00;;;;;;2276291;61;952;-87
2022/04/04 04:23:24;126509.00;0.42;219.31;0.00;0.00;0.62;;;;;8.30;1.00;;;;;;2276095;61;1990;-88
2022/04/04 04:25:51;97238.00;0.32;168.80;0.00;0.00;0.62;;;;;8.10;1.00;;;;;;2288909;56;3844;-86
2022/04/04 04:28:19;235148.00;0.78;406.40;0.00;0.00;0.62;;;;;7.90;1.00;;;;;;2275997;61;1345;-88
2022/04/04 04:30:46;78820.00;0.26;137.00;0.00;0.00;0.62;;;;;7.80;1.00;;;;;;2276076;61;1570;-87
2022/04/04 04:33:15;67489.00;0.22;117.42;0.00;0.00;0.62;;;;;7.50;1.00;;;;;;2276828;61;984;-87
2022/04/04 04:35:43;89825.00;0.30;156.01;0.00;0.00;0.62;;;;;7.50;1.00;;;;;;2276767;61;988;-88
2022/04/04 04:38:10;60051.00;0.20;104.56;0.00;0.00;0.62;;;;;6.70;1.00;;;;;;2276761;61;2170;-87
2022/04/04 04:40:37;182782.00;0.61;316.28;51720.00;0.17;90.16;;;;;7.10;1.00;;;;;;2276907;61;1133;-88
2022/04/04 04:43:04;127044.00;0.42;220.23;0.00;0.00;0.62;;;;;6.40;1.00;;;;;;2276825;61;1437;-85
2022/04/04 04:45:31;177803.00;0.59;307.71;0.00;0.00;0.62;;;;;5.60;1.00;;;;;;2276834;61;2021;-86
2022/04/04 04:47:58;105797.00;0.35;183.58;0.00;0.00;0.62;;;;;5.00;1.00;;;;;;2276671;61;1566;-86
2022/04/04 04:50:28;258666.00;0.86;446.85;0.00;0.00;0.62;;;;;4.80;1.00;;;;;;2276811;61;1612;-86
2022/04/04 04:52:56;110951.00;0.37;192.47;0.00;0.00;0.62;;;;;4.60;1.00;;;;;;2276820;61;1103;-85
2022/04/04 04:55:25;448114.00;1.49;772.54;0.00;0.00;0.62;;;;;4.00;1.00;;;;;;2276712;61;1306;-86
2022/04/04 04:57:53;369981.00;1.23;638.20;68170.00;0.23;118.60;;;;;3.50;1.00;;;;;;2276765;61;1705;-84
2022/04/04 05:00:23;173099.00;0.58;299.60;0.00;0.00;0.62;;;;;3.10;1.00;;;;;;2276756;61;1241;-85
2022/04/04 05:03:24;174795.00;0.58;302.53;0.00;0.00;0.62;;;;;3.40;1.00;;;;;;2276771;61;1447;-84
2022/04/04 05:05:41;183270.00;0.61;317.12;0.00;0.00;0.62;;;;;3.70;1.00;;;;;;2276626;61;1924;-87
2022/04/04 05:08:09;464931.00;1.55;801.47;0.00;0.00;0.62;;;;;3.80;1.00;;;;;;2276569;61;1318;-86
2022/04/04 05:10:36;164646.00;0.55;285.04;0.00;0.00;0.62;;;;;4.10;1.00;;;;;;2276601;61;1080;-87
2022/04/04 05:13:03;169698.00;0.57;293.75;0.00;0.00;0.62;;;;;4.30;1.00;;;;;;2276687;61;950;-84
2022/04/04 05:15:30;75558.00;0.25;131.36;0.00;0.00;0.62;;;;;5.30;1.00;;;;;;2276514;61;1007;-88
2022/04/04 05:17:57;54508.00;0.18;94.98;0.00;0.00;0.62;;;;;6.00;1.00;;;;;;2276674;61;1418;-86
2022/04/04 05:20:24;295502.00;0.99;510.19;34825.00;0.12;60.93;;;;;5.90;1.00;;;;;;2276684;61;1132;-86
2022/04/04 05:22:53;59204.00;0.20;103.10;0.00;0.00;0.62;;;;;5.80;1.00;;;;;;2276656;61;971;-87
2022/04/04 05:25:20;31737.00;0.11;55.59;0.00;0.00;0.62;;;;;5.60;1.00;;;;;;2276411;61;2000;-86
2022/04/04 05:27:48;245530.00;0.82;424.26;0.00;0.00;0.62;;;;;5.10;1.00;;;;;;2276354;61;1476;-85
2022/04/04 05:30:15;53262.00;0.18;92.83;0.00;0.00;0.62;;;;;4.80;1.00;;;;;;2282318;55;3735;-86
2022/04/04 05:32:43;230661.00;0.77;398.69;0.00;0.00;0.62;;;;;4.80;1.00;;;;;;2276528;61;1683;-85
2022/04/04 05:35:12;55020.00;0.18;95.87;0.00;0.00;0.62;;;;;5.00;1.00;;;;;;2276589;61;1242;-86
2022/04/04 05:37:41;41741.00;0.14;72.90;0.00;0.00;0.62;;;;;4.90;1.00;;;;;;2276588;61;1361;-86
2022/04/04 05:40:11;105532.00;0.35;183.12;0.00;0.00;0.62;;;;;5.10;1.00;;;;;;2276472;61;1403;-87
2022/04/04 05:42:39;115211.00;0.38;199.82;0.00;0.00;0.62;;;;;5.40;1.00;;;;;;2276544;61;936;-87
2022/04/04 05:45:09;71510.00;0.24;124.37;0.00;0.00;0.62;;;;;5.90;1.00;;;;;;2276436;61;1919;-86
2022/04/04 05:47:36;166169.00;0.55;287.67;0.00;0.00;0.62;;;;;5.80;1.00;;;;;;2276683;61;1298;-85
2022/04/04 05:50:04;79130.00;0.26;137.53;0.00;0.00;0.62;;;;;6.50;1.00;;;;;;2276508;61;1705;-86
2022/04/04 05:52:31;41262.00;0.14;72.07;0.00;0.00;0.62;;;;;7.00;1.00;;;;;;2276546;61;2004;-87
2022/04/04 05:54:58;70008.00;0.23;121.77;0.00;0.00;0.62;;;;;7.90;1.00;;;;;;2276536;61;1631;-85
2022/04/04 05:57:28;115262.00;0.38;199.91;0.00;0.00;0.62;;;;;8.80;1.00;;;;;;2276262;61;1319;-84
2022/04/04 05:59:56;124608.00;0.42;216.03;0.00;0.00;0.62;;;;;9.60;1.00;;;;;;2276524;61;1035;-86
2022/04/04 06:02:23;257983.00;0.86;445.68;0.00;0.00;0.62;;;;;10.40;1.00;;;;;;2276565;61;964;-87
2022/04/04 06:04:51;221509.00;0.74;382.94;0.00;0.00;0.62;;;;;11.00;1.00;;;;;;2276504;61;2009;-87
2022/04/04 06:07:18;204040.00;0.68;352.88;0.00;0.00;0.62;;;;;10.90;1.00;;;;;;2276502;61;1306;-86
2022/04/04 06:09:45;153671.00;0.51;266.13;0.00;0.00;0.62;;;;;11.10;1.00;;;;;;2276631;61;1013;-87
2022/04/04 06:12:12;153035.00;0.51;265.04;0.00;0.00;0.62;;;;;11.60;1.00;;;;;;2276500;61;1039;-88
2022/04/04 06:14:41;137897.00;0.46;238.95;0.00;0.00;0.62;;;;;11.40;1.00;;;;;;2276566;61;1161;-88
2022/04/04 06:17:08;15710.00;0.05;27.84;0.00;0.00;0.62;;;;;11.00;1.00;;;;;;2276457;61;1331;-86
2022/04/04 06:19:36;12692.00;0.04;22.61;0.00;0.00;0.62;;;;;11.40;1.00;;;;;;2276515;61;1092;-86
2022/04/04 06:22:05;278575.00;0.93;481.09;0.00;0.00;0.62;;;;;12.30;1.00;;;;;;2276502;61;1638;-87
2022/04/04 06:24:33;84940.00;0.28;147.57;0.00;0.00;0.62;;;;;12.30;1.00;;;;;;2276427;61;1927;-87
2022/04/04 06:27:00;32751.00;0.11;57.34;0.00;0.00;0.62;;;;;12.90;1.00;;;;;;2276469;61;1597;-87
2022/04/04 06:29:28;165598.00;0.55;286.68;0.00;0.00;0.62;;;;;13.40;1.00;;;;;;2276495;61;1610;-86
2022/04/04 06:31:56;60738.00;0.20;105.75;0.00;0.00;0.62;;;;;13.60;1.00;;;;;;2276338;61;1623;-89
2022/04/04 06:34:24;125914.00;0.42;218.28;0.00;0.00;0.62;;;;;13.20;1.00;;;;;;2276443;61;985;-89
2022/04/04 06:36:52;362071.00;1.21;624.61;0.00;0.00;0.62;;;;;12.80;1.00;;;;;;2276237;61;1648;-89
2022/04/04 06:41:51;308466.00;1.03;532.47;0.00;0.00;0.62;;;;;13.90;1.00;;;;;;2270423;61;1337;-90
2022/04/04 06:44:18;44554.00;0.15;77.77;0.00;0.00;0.62;;;;;12.80;1.00;;;;;;2268756;61;1985;-89
2022/04/04 06:49:14;72299.00;0.24;125.73;0.00;0.00;0.62;;;;;12.40;1.00;;;;;;2280443;56;3695;-90
2022/04/04 06:56:38;187529.00;0.63;324.45;0.00;0.00;0.62;;;;;13.80;1.00;;;;;;2269790;61;1308;-86
2022/04/04 07:11:36;120858.00;0.40;209.56;0.00;0.00;0.62;;;;;13.00;1.00;;;;;;2269899;61;1421;-88
2022/04/04 07:19:02;121919.00;0.41;211.39;0.00;0.00;0.62;;;;;14.60;1.00;;;;;;2270678;61;1178;-87
2022/04/04 07:23:57;396678.00;1.32;684.09;0.00;0.00;0.62;;;;;15.80;1.00;;;;;;2270533;61;1329;-90
2022/04/04 07:26:25;386237.00;1.29;666.15;56564.00;0.19;98.54;;;;;15.80;1.00;;;;;;2268678;61;1932;-88
2022/04/04 07:28:55;109371.00;0.36;189.74;0.00;0.00;0.62;;;;;15.70;1.00;;;;;;2268716;61;1761;-89
2022/04/04 07:31:23;165855.00;0.55;287.13;0.00;0.00;0.62;;;;;15.60;1.00;;;;;;2268780;61;1763;-86
2022/04/04 07:33:50;38516.00;0.13;67.32;0.00;0.00;0.62;;;;;15.90;1.00;;;;;;2268881;61;845;-90
2022/04/04 07:36:17;412959.00;1.38;712.08;0.00;0.00;0.62;;;;;15.90;1.00;;;;;;2268725;61;1743;-87
2022/04/04 08:39:06;205260.00;0.68;354.98;0.00;0.00;0.62;;;;;14.10;1.00;;;;;;2269975;61;1357;-87
2022/04/04 08:56:40;202469.00;0.67;350.17;0.00;0.00;0.62;;;;;11.50;1.00;;;;;;2337148;40;3531;-86
2022/04/04 10:28:31;261998.00;0.87;452.58;0.00;0.00;0.62;;;;;10.30;1.00;;;;;;2287267;39;3566;-84
2022/04/04 10:33:35;241780.00;0.81;417.81;0.00;0.00;0.62;;;;;10.20;1.00;;;;;;2269914;61;1459;-86
2022/04/04 10:36:04;148310.00;0.49;256.89;0.00;0.00;0.62;;;;;10.40;1.00;;;;;;2268240;61;1148;-84
2022/04/04 10:41:02;703153.00;2.34;1212.71;66058.00;0.22;114.95;;;;;9.90;1.00;;;;;;2293132;40;3588;-88
2022/04/04 10:43:33;1218884.00;4.06;2124.40;107128.00;0.36;185.87;;;;;9.80;1.00;;;;;;2272257;61;1132;-87
2022/04/04 10:46:02;1235808.00;4.12;2155.10;75151.00;0.25;130.66;;;;;9.40;1.00;;;;;;2272317;61;1920;-87
2022/04/04 10:48:32;1091599.00;3.64;1895.41;85831.00;0.29;149.11;;;;;8.80;1.00;;;;;;2272213;61;1563;-84
2022/04/04 10:51:10;821110.00;2.74;1417.96;49599.00;0.17;86.49;;;;;9.40;1.00;;;;;;2272206;61;1618;-88
2022/04/04 10:53:45;1521004.00;5.07;2682.71;227268.00;0.76;392.85;;;;;9.80;1.00;;;;;;2272468;61;1156;-84
2022/04/04 10:56:18;1582224.00;5.27;2798.81;100884.00;0.34;175.10;;;;;9.90;1.00;;;;;;2272358;61;1023;-87
2022/04/04 10:58:48;1976677.00;6.59;3576.54;185099.00;0.62;320.27;;;;;10.00;1.00;;;;;;2272093;61;1338;-87
2022/04/04 11:01:16;340199.00;1.13;587.02;0.00;0.00;0.62;;;;;10.40;1.00;;;;;;2272265;61;1677;-88
2022/04/04 11:03:58;504070.00;1.68;868.83;93252.00;0.31;161.92;;;;;10.20;1.00;;;;;;2279119;56;3845;-87
2022/04/04 11:09:32;1000561.00;3.34;1733.47;116087.00;0.39;201.33;;;;;10.30;1.00;;;;;;2272364;61;695;-85
2022/04/04 11:12:12;384738.00;1.28;663.57;99016.00;0.33;171.87;;;;;10.50;1.00;;;;;;2272219;61;1164;-86
2022/04/04 11:14:54;540630.00;1.80;931.81;90417.00;0.30;157.03;;;;;10.70;1.00;;;;;;2271942;61;1485;-84
2022/04/04 11:17:33;433781.00;1.45;747.89;92172.00;0.31;160.06;;;;;10.50;1.00;;;;;;2272037;61;1470;-86
2022/04/04 11:20:10;463112.00;1.54;798.34;87872.00;0.29;152.63;;;;;10.40;1.00;;;;;;2271909;61;1144;-85
2022/04/04 11:22:42;604386.00;2.01;1041.79;96530.00;0.32;167.58;;;;;10.70;1.00;;;;;;2272024;61;1239;-85
2022/04/04 11:25:15;782360.00;2.61;1350.38;102995.00;0.34;178.74;;;;;10.30;1.00;;;;;;2271829;61;1984;-87
2022/04/04 11:27:47;123500936.00;411.67;76313248.00;106074.00;0.35;184.06;;;;;10.60;1.00;;;;;;2271981;61;1316;-85
2022/04/04 11:30:17;718498.00;2.39;1239.33;106515.00;0.36;184.82;;;;;10.10;1.00;;;;;;2272230;61;1106;-86
2022/04/04 11:32:47;368844.00;1.23;636.25;93044.00;0.31;161.56;;;;;9.40;1.00;;;;;;2272055;61;1166;-87
2022/04/04 11:35:15;211568.00;0.71;365.83;89015.00;0.30;154.61;;;;;9.50;1.00;;;;;;2272003;61;1209;-86
2022/04/04 11:37:44;214660.00;0.72;371.15;90587.00;0.30;157.32;;;;;9.80;1.00;;;;;;2272021;61;1278;-85
2022/04/04 11:40:14;69067.00;0.23;120.15;0.00;0.00;0.62;;;;;10.40;1.00;;;;;;2271995;61;1124;-87
2022/04/04 11:42:44;193934.00;0.65;335.48;0.00;0.00;0.62;;;;;10.90;1.00;;;;;;2271635;61;1149;-84
2022/04/04 11:45:17;68168.00;0.23;118.59;0.00;0.00;0.62;;;;;10.90;1.00;;;;;;2271821;61;2002;-86
2022/04/04 11:47:53;138045.00;0.46;239.20;0.00;0.00;0.62;;;;;10.80;1.00;;;;;;2272093;61;1575;-86
2022/04/04 11:50:25;120375.00;0.40;208.73;0.00;0.00;0.62;;;;;9.50;1.00;;;;;;2271873;61;1478;-85
2022/04/04 11:52:54;51593.00;0.17;89.94;0.00;0.00;0.62;;;;;9.90;1.00;;;;;;2271734;61;1035;-85
2022/04/04 11:55:25;84407.00;0.28;146.65;0.00;0.00;0.62;;;;;10.00;1.00;;;;;;2271988;61;1255;-86
2022/04/04 11:57:58;181975.00;0.61;314.89;0.00;0.00;0.62;;;;;10.00;1.00;;;;;;2272104;61;1577;-84
2022/04/04 12:00:28;77268.00;0.26;134.32;0.00;0.00;0.62;;;;;10.30;1.00;;;;;;2272200;61;1044;-83
2022/04/04 12:02:55;201114.00;0.67;347.84;0.00;0.00;0.62;;;;;10.50;1.00;;;;;;2272105;61;1042;-87
2022/04/04 12:05:26;137774.00;0.46;238.73;0.00;0.00;0.62;;;;;10.50;1.00;;;;;;2271966;61;1931;-85
2022/04/04 12:07:54;21475.00;0.07;37.82;0.00;0.00;0.62;;;;;9.80;1.00;;;;;;2271829;61;1463;-85
2022/04/04 12:10:31;60922.00;0.20;106.07;0.00;0.00;0.62;;;;;9.60;1.00;;;;;;2271983;61;1126;-85
2022/04/04 12:13:00;85780.00;0.29;149.02;0.00;0.00;0.62;;;;;9.10;1.00;;;;;;2271849;61;1057;-87
2022/04/04 12:15:31;55749.00;0.19;97.13;0.00;0.00;0.62;;;;;9.30;1.00;;;;;;2271929;61;1017;-85
2022/04/04 12:17:59;150610.00;0.50;260.86;9317.00;0.03;16.77;;;;;9.40;1.00;;;;;;2271476;61;1387;-83
2022/04/04 12:20:26;54263.00;0.18;94.56;0.00;0.00;0.62;;;;;10.40;1.00;;;;;;2271538;61;1125;-84
2022/04/04 12:25:38;61428.00;0.20;106.95;0.00;0.00;0.62;;;;;11.10;1.00;;;;;;2271664;61;1980;-83
2022/04/04 12:28:05;64926.00;0.22;112.99;0.00;0.00;0.62;;;;;11.10;1.00;;;;;;2271757;61;1290;-83
2022/04/04 12:30:36;435789.00;1.45;751.34;16854.00;0.06;29.82;;;;;11.00;1.00;;;;;;2272080;61;1103;-86
2022/04/04 12:33:11;535192.00;1.78;922.44;31519.00;0.11;55.21;;;;;10.60;1.00;;;;;;2272088;61;1224;-85
2022/04/04 12:35:43;1566406.00;5.22;2768.71;169381.00;0.56;293.20;;;;;10.20;1.00;;;;;;2272013;61;1169;-86
2022/04/04 12:38:10;1479575.00;4.93;2604.75;126642.00;0.42;219.54;;;;;10.40;1.00;;;;;;2271869;61;1426;-86
2022/04/04 12:40:38;1700346.00;5.67;3026.10;196371.00;0.65;339.68;;;;;10.50;1.00;;;;;;2271890;61;960;-85
2022/04/04 12:43:07;1347700.00;4.49;2359.67;258291.00;0.86;446.21;;;;;10.30;1.00;;;;;;2271953;61;1011;-88
2022/04/04 12:45:46;934869.00;3.12;1617.45;149148.00;0.50;258.34;;;;;10.20;1.00;;;;;;2271928;61;1994;-87
2022/04/04 12:48:13;477226.00;1.59;822.62;95849.00;0.32;166.41;;;;;10.00;1.00;;;;;;2272085;61;1409;-87
2022/04/04 12:50:43;260368.00;0.87;449.78;91926.00;0.31;159.63;;;;;10.20;1.00;;;;;;2271930;61;1640;-87
2022/04/04 12:53:12;119803072.00;399.34;69655616.00;0.00;0.00;0.62;;;;;10.60;1.00;;;;;;2272086;61;1433;-85
2022/04/04 12:55:43;294095.00;0.98;507.77;68479.00;0.23;119.13;;;;;10.40;1.00;;;;;;2272650;61;1030;-88
2022/04/04 12:58:22;79616.00;0.27;138.37;0.00;0.00;0.62;;;;;10.20;1.00;;;;;;2272697;61;1363;-88
2022/04/04 13:00:51;113168.00;0.38;196.30;0.00;0.00;0.62;;;;;10.20;1.00;;;;;;2272590;61;2021;-86
2022/04/04 13:03:22;83536.00;0.28;145.14;0.00;0.00;0.62;;;;;10.50;1.00;;;;;;2272543;61;1564;-87
2022/04/04 13:05:50;71703.00;0.24;124.70;0.00;0.00;0.62;;;;;11.00;1.00;;;;;;2272699;61;1973;-87
2022/04/04 13:08:19;221246.00;0.74;382.49;32885.00;0.11;57.58;;;;;11.20;1.00;;;;;;2272593;61;1411;-88
2022/04/04 13:11:02;27857.00;0.09;48.87;0.00;0.00;0.62;;;;;10.80;1.00;;;;;;2272668;61;1614;-85
2022/04/04 13:13:29;46971.00;0.16;81.95;0.00;0.00;0.62;;;;;10.90;1.00;;;;;;2272633;61;1122;-86
2022/04/04 13:15:58;55885.00;0.19;97.36;0.00;0.00;0.62;;;;;11.40;1.00;;;;;;2272583;61;1145;-86
2022/04/04 13:18:25;86061.00;0.29;149.51;0.00;0.00;0.62;;;;;11.00;1.00;;;;;;2272553;61;1424;-88
2022/04/04 13:20:52;170113.00;0.57;294.46;29190.00;0.10;51.18;;;;;10.70;1.00;;;;;;2272597;61;1449;-86
2022/04/04 13:23:20;64041.00;0.21;111.46;0.00;0.00;0.62;;;;;10.60;1.00;;;;;;2272560;61;1059;-86
2022/04/04 13:25:50;108197.00;0.36;187.72;0.00;0.00;0.62;;;;;10.70;1.00;;;;;;2272440;61;1992;-85
2022/04/04 13:28:17;72326.00;0.24;125.78;0.00;0.00;0.62;;;;;11.00;1.00;;;;;;2272438;61;1394;-86
2022/04/04 13:30:45;24026.00;0.08;42.24;0.00;0.00;0.62;;;;;11.30;1.00;;;;;;2272591;61;1092;-84
2022/04/04 13:33:13;387146.00;1.29;667.71;50916.00;0.17;88.77;;;;;11.80;1.00;;;;;;2272519;61;1697;-87
2022/04/04 13:38:29;335660.00;1.12;579.21;0.00;0.00;0.62;;;;;11.70;1.00;;;;;;2272375;61;1638;-85
2022/04/04 13:40:56;244734.00;0.82;422.89;29152.00;0.10;51.12;;;;;11.30;1.00;;;;;;2272568;61;1179;-85
2022/04/04 13:43:26;1701377.00;5.67;3028.10;105137.00;0.35;182.44;;;;;11.40;1.00;;;;;;2272605;61;920;-86
2022/04/04 13:45:53;1748630.00;5.83;3120.31;147622.00;0.49;255.71;;;;;11.20;1.00;;;;;;2272505;61;1997;-86
2022/04/04 13:48:21;117888872.00;392.96;66366952.00;102185.00;0.34;177.34;;;;;11.00;1.00;;;;;;2272479;61;1311;-86
2022/04/04 13:50:49;388263.00;1.29;669.63;90052.00;0.30;156.40;;;;;11.30;1.00;;;;;;2272408;61;1023;-83
2022/04/04 13:53:16;404564.00;1.35;697.65;87476.00;0.29;151.95;;;;;11.50;1.00;;;;;;2272400;61;1712;-85
2022/04/04 13:55:43;208456.00;0.69;360.48;91167.00;0.30;158.32;;;;;11.30;1.00;;;;;;2272483;61;1126;-86
2022/04/04 13:58:10;219272.00;0.73;379.09;100267.00;0.33;174.03;;;;;11.00;1.00;;;;;;2272384;61;1262;-87
2022/04/04 14:00:38;9169.00;0.03;16.51;0.00;0.00;0.62;;;;;10.90;1.00;;;;;;2272462;61;1130;-87